sensor_id;sensor_type;location;lat;lon;timestamp;pressure;altitude;pressure_sealevel;temperature;humidity
72409;BME280;60402;48.082;11.628;2023-08-07T00:01:02;95047.13;;;11.93;94.24
72409;BME280;60402;48.082;11.628;2023-08-07T00:03:48;95052.66;;;11.96;93.47
72409;BME280;60402;48.082;11.628;2023-08-07T00:06:33;95037.38;;;11.94;92.78
72409;BME280;60402;48.082;11.628;2023-08-07T00:09:19;95037.53;;;11.90;93.81
72409;BME280;60402;48.082;11.628;2023-08-07T00:12:05;95028.63;;;11.79;94.45
72409;BME280;60402;48.082;11.628;2023-08-07T00:14:50;95057.53;;;11.96;92.63
72409;BME280;60402;48.082;11.628;2023-08-07T00:17:36;95051.34;;;11.88;93.32
72409;BME280;60402;48.082;11.628;2023-08-07T00:20:22;95054.22;;;11.75;93.20
72409;BME280;60402;48.082;11.628;2023-08-07T00:23:08;95064.06;;;11.84;94.66
72409;BME280;60402;48.082;11.628;2023-08-07T00:25:53;95057.34;;;11.68;94.07
72409;BME280;60402;48.082;11.628;2023-08-07T00:28:39;95071.69;;;11.74;94.90
72409;BME280;60402;48.082;11.628;2023-08-07T00:31:25;95070.84;;;11.64;96.71
72409;BME280;60402;48.082;11.628;2023-08-07T00:34:10;95068.25;;;11.57;96.47
72409;BME280;60402;48.082;11.628;2023-08-07T00:36:56;95084.69;;;11.71;96.20
72409;BME280;60402;48.082;11.628;2023-08-07T00:39:42;95074.25;;;11.59;95.68
72409;BME280;60402;48.082;11.628;2023-08-07T00:42:28;95081.78;;;11.53;97.63
72409;BME280;60402;48.082;11.628;2023-08-07T00:45:13;95066.38;;;11.54;97.00
72409;BME280;60402;48.082;11.628;2023-08-07T00:47:59;95073.47;;;11.59;97.49
72409;BME280;60402;48.082;11.628;2023-08-07T00:50:45;95078.59;;;11.51;97.04
72409;BME280;60402;48.082;11.628;2023-08-07T00:53:33;95070.97;;;11.39;98.46
72409;BME280;60402;48.082;11.628;2023-08-07T00:56:19;95064.44;;;11.29;99.75
72409;BME280;60402;48.082;11.628;2023-08-07T00:59:04;95075.13;;;11.25;100.00
72409;BME280;60402;48.082;11.628;2023-08-07T01:01:50;95074.69;;;11.14;100.00
72409;BME280;60402;48.082;11.628;2023-08-07T01:04:36;95079.44;;;11.17;100.00
72409;BME280;60402;48.082;11.628;2023-08-07T01:07:21;95082.09;;;10.98;100.00
72409;BME280;60402;48.082;11.628;2023-08-07T01:10:08;95085.63;;;10.90;100.00
72409;BME280;60402;48.082;11.628;2023-08-07T01:13:00;95087.44;;;10.96;100.00
72409;BME280;60402;48.082;11.628;2023-08-07T01:15:50;95084.75;;;10.80;100.00
72409;BME280;60402;48.082;11.628;2023-08-07T01:18:38;95093.41;;;10.98;100.00
72409;BME280;60402;48.082;11.628;2023-08-07T01:21:24;95086.00;;;10.79;100.00
72409;BME280;60402;48.082;11.628;2023-08-07T01:24:09;95088.81;;;10.79;100.00
72409;BME280;60402;48.082;11.628;2023-08-07T01:26:57;95096.41;;;10.69;100.00
72409;BME280;60402;48.082;11.628;2023-08-07T01:33:09;95091.09;;;10.71;100.00
72409;BME280;60402;48.082;11.628;2023-08-07T01:35:56;95100.50;;;10.68;100.00
72409;BME280;60402;48.082;11.628;2023-08-07T01:38:44;95086.81;;;10.67;100.00
72409;BME280;60402;48.082;11.628;2023-08-07T01:41:31;95095.97;;;10.58;100.00
72409;BME280;60402;48.082;11.628;2023-08-07T01:44:17;95092.59;;;10.63;100.00
72409;BME280;60402;48.082;11.628;2023-08-07T01:47:02;95107.94;;;10.62;100.00
72409;BME280;60402;48.082;11.628;2023-08-07T01:49:48;95101.84;;;10.64;100.00
72409;BME280;60402;48.082;11.628;2023-08-07T01:52:34;95101.75;;;10.42;100.00
72409;BME280;60402;48.082;11.628;2023-08-07T01:55:21;95109.19;;;10.48;100.00
72409;BME280;60402;48.082;11.628;2023-08-07T01:58:06;95108.31;;;10.39;100.00
72409;BME280;60402;48.082;11.628;2023-08-07T02:00:52;95099.16;;;10.35;100.00
72409;BME280;60402;48.082;11.628;2023-08-07T02:03:38;95114.19;;;10.32;100.00
72409;BME280;60402;48.082;11.628;2023-08-07T02:06:24;95115.56;;;10.40;100.00
72409;BME280;60402;48.082;11.628;2023-08-07T02:09:09;95104.38;;;10.36;100.00
72409;BME280;60402;48.082;11.628;2023-08-07T02:11:55;95113.69;;;10.20;100.00
72409;BME280;60402;48.082;11.628;2023-08-07T02:14:41;95102.84;;;10.19;100.00
72409;BME280;60402;48.082;11.628;2023-08-07T02:17:27;95113.25;;;10.09;100.00
72409;BME280;60402;48.082;11.628;2023-08-07T02:20:13;95103.09;;;10.12;100.00
72409;BME280;60402;48.082;11.628;2023-08-07T02:22:59;95118.31;;;10.02;100.00
72409;BME280;60402;48.082;11.628;2023-08-07T02:25:44;95108.28;;;10.13;100.00
72409;BME280;60402;48.082;11.628;2023-08-07T02:28:31;95111.88;;;10.14;100.00
72409;BME280;60402;48.082;11.628;2023-08-07T02:31:16;95108.84;;;10.21;100.00
72409;BME280;60402;48.082;11.628;2023-08-07T02:34:02;95107.13;;;10.11;100.00
72409;BME280;60402;48.082;11.628;2023-08-07T02:36:48;95118.44;;;10.23;100.00
72409;BME280;60402;48.082;11.628;2023-08-07T02:39:33;95121.25;;;10.23;100.00
72409;BME280;60402;48.082;11.628;2023-08-07T02:42:19;95127.03;;;10.20;100.00
72409;BME280;60402;48.082;11.628;2023-08-07T02:45:05;95127.94;;;10.17;100.00
72409;BME280;60402;48.082;11.628;2023-08-07T02:47:51;95142.06;;;10.17;100.00
72409;BME280;60402;48.082;11.628;2023-08-07T02:50:37;95129.16;;;10.16;100.00
72409;BME280;60402;48.082;11.628;2023-08-07T02:53:22;95135.81;;;10.09;100.00
72409;BME280;60402;48.082;11.628;2023-08-07T02:56:08;95144.09;;;10.16;100.00
72409;BME280;60402;48.082;11.628;2023-08-07T02:58:54;95136.28;;;10.20;100.00
72409;BME280;60402;48.082;11.628;2023-08-07T03:01:40;95137.34;;;10.27;100.00
72409;BME280;60402;48.082;11.628;2023-08-07T03:04:25;95134.75;;;10.32;100.00
72409;BME280;60402;48.082;11.628;2023-08-07T03:07:11;95145.47;;;10.24;100.00
72409;BME280;60402;48.082;11.628;2023-08-07T03:09:57;95149.66;;;10.33;100.00
72409;BME280;60402;48.082;11.628;2023-08-07T03:12:42;95138.25;;;10.36;100.00
72409;BME280;60402;48.082;11.628;2023-08-07T03:15:28;95145.59;;;10.34;100.00
72409;BME280;60402;48.082;11.628;2023-08-07T03:18:14;95143.13;;;10.36;100.00
72409;BME280;60402;48.082;11.628;2023-08-07T03:20:59;95152.59;;;10.42;100.00
72409;BME280;60402;48.082;11.628;2023-08-07T03:23:45;95146.38;;;10.34;100.00
72409;BME280;60402;48.082;11.628;2023-08-07T03:26:31;95141.88;;;10.37;100.00
72409;BME280;60402;48.082;11.628;2023-08-07T03:29:16;95138.94;;;10.28;100.00
72409;BME280;60402;48.082;11.628;2023-08-07T03:32:02;95159.59;;;10.37;100.00
72409;BME280;60402;48.082;11.628;2023-08-07T03:34:48;95154.75;;;10.38;100.00
72409;BME280;60402;48.082;11.628;2023-08-07T03:37:34;95147.50;;;10.37;100.00
72409;BME280;60402;48.082;11.628;2023-08-07T03:40:19;95148.09;;;10.44;100.00
72409;BME280;60402;48.082;11.628;2023-08-07T03:43:05;95145.59;;;10.34;100.00
72409;BME280;60402;48.082;11.628;2023-08-07T03:45:55;95150.22;;;10.53;100.00
72409;BME280;60402;48.082;11.628;2023-08-07T03:48:44;95150.34;;;10.49;100.00
72409;BME280;60402;48.082;11.628;2023-08-07T03:51:29;95163.78;;;10.58;100.00
72409;BME280;60402;48.082;11.628;2023-08-07T03:54:16;95159.38;;;10.57;100.00
72409;BME280;60402;48.082;11.628;2023-08-07T03:57:01;95163.56;;;10.53;100.00
72409;BME280;60402;48.082;11.628;2023-08-07T03:59:48;95166.16;;;10.47;100.00
72409;BME280;60402;48.082;11.628;2023-08-07T04:02:33;95178.81;;;10.55;100.00
72409;BME280;60402;48.082;11.628;2023-08-07T04:05:19;95181.09;;;10.60;100.00
72409;BME280;60402;48.082;11.628;2023-08-07T04:08:04;95179.72;;;10.52;100.00
72409;BME280;60402;48.082;11.628;2023-08-07T04:11:01;95180.72;;;10.58;100.00
72409;BME280;60402;48.082;11.628;2023-08-07T04:13:47;95187.19;;;10.59;100.00
72409;BME280;60402;48.082;11.628;2023-08-07T04:16:33;95184.22;;;10.62;100.00
72409;BME280;60402;48.082;11.628;2023-08-07T04:19:18;95189.66;;;10.69;100.00
72409;BME280;60402;48.082;11.628;2023-08-07T04:22:04;95181.75;;;10.77;100.00
72409;BME280;60402;48.082;11.628;2023-08-07T04:24:50;95185.84;;;10.63;100.00
72409;BME280;60402;48.082;11.628;2023-08-07T04:27:35;95179.38;;;10.63;100.00
72409;BME280;60402;48.082;11.628;2023-08-07T04:30:21;95186.28;;;10.62;100.00
72409;BME280;60402;48.082;11.628;2023-08-07T04:33:07;95180.84;;;10.67;100.00
72409;BME280;60402;48.082;11.628;2023-08-07T04:35:53;95185.72;;;10.80;100.00
72409;BME280;60402;48.082;11.628;2023-08-07T04:38:38;95174.97;;;10.62;100.00
72409;BME280;60402;48.082;11.628;2023-08-07T04:41:24;95182.09;;;10.66;100.00
72409;BME280;60402;48.082;11.628;2023-08-07T04:44:10;95186.28;;;10.74;100.00
72409;BME280;60402;48.082;11.628;2023-08-07T04:46:55;95197.69;;;10.71;100.00
72409;BME280;60402;48.082;11.628;2023-08-07T04:49:41;95189.22;;;10.71;100.00
72409;BME280;60402;48.082;11.628;2023-08-07T04:52:27;95201.19;;;10.75;100.00
72409;BME280;60402;48.082;11.628;2023-08-07T04:55:13;95197.78;;;10.67;100.00
72409;BME280;60402;48.082;11.628;2023-08-07T04:57:58;95205.50;;;10.80;100.00
72409;BME280;60402;48.082;11.628;2023-08-07T05:00:44;95194.50;;;10.82;99.69
72409;BME280;60402;48.082;11.628;2023-08-07T05:03:30;95214.06;;;10.76;100.00
72409;BME280;60402;48.082;11.628;2023-08-07T05:06:16;95215.34;;;10.88;99.30
72409;BME280;60402;48.082;11.628;2023-08-07T05:09:02;95209.56;;;10.79;99.97
72409;BME280;60402;48.082;11.628;2023-08-07T05:11:48;95208.06;;;10.87;99.33
72409;BME280;60402;48.082;11.628;2023-08-07T05:14:34;95206.97;;;10.97;97.69
72409;BME280;60402;48.082;11.628;2023-08-07T05:17:20;95208.31;;;10.92;98.65
72409;BME280;60402;48.082;11.628;2023-08-07T05:20:06;95200.63;;;10.93;96.09
72409;BME280;60402;48.082;11.628;2023-08-07T05:22:51;95214.50;;;11.00;96.06
72409;BME280;60402;48.082;11.628;2023-08-07T05:25:37;95206.38;;;10.89;96.51
72409;BME280;60402;48.082;11.628;2023-08-07T05:28:23;95220.94;;;11.00;96.30
72409;BME280;60402;48.082;11.628;2023-08-07T05:31:09;95226.28;;;10.98;94.94
72409;BME280;60402;48.082;11.628;2023-08-07T05:33:54;95226.19;;;10.89;97.19
72409;BME280;60402;48.082;11.628;2023-08-07T05:36:40;95231.16;;;10.98;95.67
72409;BME280;60402;48.082;11.628;2023-08-07T05:39:26;95226.28;;;10.98;94.71
72409;BME280;60402;48.082;11.628;2023-08-07T05:42:12;95239.28;;;11.09;94.50
72409;BME280;60402;48.082;11.628;2023-08-07T05:44:58;95246.19;;;11.08;94.86
72409;BME280;60402;48.082;11.628;2023-08-07T05:47:44;95244.16;;;11.08;94.04
72409;BME280;60402;48.082;11.628;2023-08-07T05:50:29;95256.94;;;11.13;93.88
72409;BME280;60402;48.082;11.628;2023-08-07T05:53:15;95255.25;;;11.15;93.67
72409;BME280;60402;48.082;11.628;2023-08-07T05:56:01;95251.06;;;11.07;93.98
72409;BME280;60402;48.082;11.628;2023-08-07T05:58:46;95255.88;;;11.19;93.17
72409;BME280;60402;48.082;11.628;2023-08-07T06:01:32;95260.66;;;11.22;92.86
72409;BME280;60402;48.082;11.628;2023-08-07T06:04:18;95252.16;;;11.22;91.65
72409;BME280;60402;48.082;11.628;2023-08-07T06:07:05;95262.91;;;11.15;91.41
72409;BME280;60402;48.082;11.628;2023-08-07T06:09:51;95256.34;;;11.18;91.54
72409;BME280;60402;48.082;11.628;2023-08-07T06:12:37;95264.16;;;11.26;91.06
72409;BME280;60402;48.082;11.628;2023-08-07T06:15:22;95264.38;;;11.19;91.04
72409;BME280;60402;48.082;11.628;2023-08-07T06:18:08;95262.78;;;11.18;90.53
72409;BME280;60402;48.082;11.628;2023-08-07T06:20:54;95281.56;;;11.38;90.27
72409;BME280;60402;48.082;11.628;2023-08-07T06:23:39;95271.59;;;11.46;90.22
72409;BME280;60402;48.082;11.628;2023-08-07T06:26:25;95272.38;;;11.46;89.07
72409;BME280;60402;48.082;11.628;2023-08-07T06:29:10;95255.16;;;11.54;89.23
72409;BME280;60402;48.082;11.628;2023-08-07T06:31:56;95265.53;;;11.82;87.39
72409;BME280;60402;48.082;11.628;2023-08-07T06:34:42;95267.81;;;12.09;85.40
72409;BME280;60402;48.082;11.628;2023-08-07T06:37:28;95275.13;;;12.19;86.01
72409;BME280;60402;48.082;11.628;2023-08-07T06:40:13;95264.25;;;12.40;85.46
72409;BME280;60402;48.082;11.628;2023-08-07T06:42:59;95261.09;;;12.38;82.60
72409;BME280;60402;48.082;11.628;2023-08-07T06:45:52;95287.66;;;12.53;83.44
72409;BME280;60402;48.082;11.628;2023-08-07T06:48:38;95279.88;;;12.66;82.25
72409;BME280;60402;48.082;11.628;2023-08-07T06:51:23;95283.84;;;12.78;79.69
72409;BME280;60402;48.082;11.628;2023-08-07T06:54:09;95270.06;;;12.89;78.54
72409;BME280;60402;48.082;11.628;2023-08-07T06:56:55;95277.63;;;12.92;80.23
72409;BME280;60402;48.082;11.628;2023-08-07T06:59:40;95284.91;;;13.02;79.08
72409;BME280;60402;48.082;11.628;2023-08-07T07:02:26;95288.63;;;13.52;77.00
72409;BME280;60402;48.082;11.628;2023-08-07T07:05:12;95288.97;;;13.64;75.10
72409;BME280;60402;48.082;11.628;2023-08-07T07:07:57;95289.53;;;14.17;74.83
72409;BME280;60402;48.082;11.628;2023-08-07T07:10:43;95298.03;;;14.63;70.63
72409;BME280;60402;48.082;11.628;2023-08-07T07:13:29;95288.00;;;15.47;68.25
72409;BME280;60402;48.082;11.628;2023-08-07T07:16:14;95294.50;;;15.80;68.38
72409;BME280;60402;48.082;11.628;2023-08-07T07:19:00;95290.47;;;15.30;67.95
72409;BME280;60402;48.082;11.628;2023-08-07T07:21:46;95303.91;;;15.29;67.83
72409;BME280;60402;48.082;11.628;2023-08-07T07:24:31;95289.75;;;15.87;65.66
72409;BME280;60402;48.082;11.628;2023-08-07T07:27:17;95303.31;;;16.54;63.31
72409;BME280;60402;48.082;11.628;2023-08-07T07:30:03;95300.50;;;16.30;63.59
72409;BME280;60402;48.082;11.628;2023-08-07T07:32:50;95288.34;;;16.83;61.26
72409;BME280;60402;48.082;11.628;2023-08-07T07:35:39;95310.56;;;16.41;61.22
72409;BME280;60402;48.082;11.628;2023-08-07T07:38:24;95315.78;;;15.94;61.34
72409;BME280;60402;48.082;11.628;2023-08-07T07:41:11;95322.53;;;15.82;62.23
72409;BME280;60402;48.082;11.628;2023-08-07T07:43:57;95304.44;;;15.52;64.28
72409;BME280;60402;48.082;11.628;2023-08-07T07:46:43;95331.66;;;15.01;67.14
72409;BME280;60402;48.082;11.628;2023-08-07T07:49:28;95328.97;;;14.98;67.70
72409;BME280;60402;48.082;11.628;2023-08-07T07:52:14;95329.16;;;14.76;68.68
72409;BME280;60402;48.082;11.628;2023-08-07T07:55:00;95338.81;;;14.60;68.57
72409;BME280;60402;48.082;11.628;2023-08-07T07:57:46;95337.84;;;14.36;70.75
72409;BME280;60402;48.082;11.628;2023-08-07T08:00:31;95327.09;;;14.12;71.08
72409;BME280;60402;48.082;11.628;2023-08-07T08:03:17;95342.72;;;14.17;71.03
72409;BME280;60402;48.082;11.628;2023-08-07T08:06:03;95342.31;;;13.78;73.42
72409;BME280;60402;48.082;11.628;2023-08-07T08:08:48;95341.38;;;13.81;73.59
72409;BME280;60402;48.082;11.628;2023-08-07T08:11:34;95349.66;;;13.97;73.79
72409;BME280;60402;48.082;11.628;2023-08-07T08:14:20;95368.91;;;14.02;73.46
72409;BME280;60402;48.082;11.628;2023-08-07T08:17:06;95365.25;;;14.02;72.78
72409;BME280;60402;48.082;11.628;2023-08-07T08:19:51;95362.06;;;13.81;72.72
72409;BME280;60402;48.082;11.628;2023-08-07T08:22:37;95359.22;;;13.81;71.47
72409;BME280;60402;48.082;11.628;2023-08-07T08:25:22;95379.56;;;13.80;71.31
72409;BME280;60402;48.082;11.628;2023-08-07T08:28:08;95375.28;;;13.75;72.50
72409;BME280;60402;48.082;11.628;2023-08-07T08:30:54;95354.50;;;13.88;72.74
72409;BME280;60402;48.082;11.628;2023-08-07T08:33:39;95358.09;;;13.70;72.52
72409;BME280;60402;48.082;11.628;2023-08-07T08:36:25;95351.38;;;13.54;74.02
72409;BME280;60402;48.082;11.628;2023-08-07T08:39:11;95371.63;;;13.66;73.68
72409;BME280;60402;48.082;11.628;2023-08-07T08:41:56;95375.28;;;13.75;73.96
72409;BME280;60402;48.082;11.628;2023-08-07T08:44:54;95377.03;;;13.82;73.46
72409;BME280;60402;48.082;11.628;2023-08-07T08:47:44;95380.38;;;13.90;73.98
72409;BME280;60402;48.082;11.628;2023-08-07T08:50:32;95381.47;;;13.74;74.43
72409;BME280;60402;48.082;11.628;2023-08-07T08:53:20;95394.84;;;13.73;74.53
72409;BME280;60402;48.082;11.628;2023-08-07T08:56:06;95379.81;;;13.64;75.01
72409;BME280;60402;48.082;11.628;2023-08-07T08:58:52;95405.28;;;13.76;73.45
72409;BME280;60402;48.082;11.628;2023-08-07T09:01:38;95390.56;;;13.69;73.59
72409;BME280;60402;48.082;11.628;2023-08-07T09:04:23;95413.31;;;13.78;72.87
72409;BME280;60402;48.082;11.628;2023-08-07T09:07:09;95407.00;;;13.74;73.10
72409;BME280;60402;48.082;11.628;2023-08-07T09:09:56;95405.22;;;13.67;73.42
72409;BME280;60402;48.082;11.628;2023-08-07T09:12:53;95386.31;;;13.73;75.19
72409;BME280;60402;48.082;11.628;2023-08-07T09:15:39;95398.38;;;13.87;73.41
72409;BME280;60402;48.082;11.628;2023-08-07T09:18:26;95404.81;;;13.87;73.34
72409;BME280;60402;48.082;11.628;2023-08-07T09:21:12;95411.31;;;13.97;71.58
72409;BME280;60402;48.082;11.628;2023-08-07T09:24:01;95408.66;;;13.93;72.78
72409;BME280;60402;48.082;11.628;2023-08-07T09:26:47;95418.28;;;13.96;72.65
72409;BME280;60402;48.082;11.628;2023-08-07T09:29:33;95402.34;;;13.98;73.28
72409;BME280;60402;48.082;11.628;2023-08-07T09:32:19;95411.38;;;14.15;71.31
72409;BME280;60402;48.082;11.628;2023-08-07T09:35:08;95405.63;;;13.88;71.87
72409;BME280;60402;48.082;11.628;2023-08-07T09:37:56;95408.16;;;13.86;72.22
72409;BME280;60402;48.082;11.628;2023-08-07T09:40:42;95401.50;;;13.79;72.95
72409;BME280;60402;48.082;11.628;2023-08-07T09:43:28;95400.09;;;13.84;74.40
72409;BME280;60402;48.082;11.628;2023-08-07T09:46:13;95404.88;;;14.05;74.50
72409;BME280;60402;48.082;11.628;2023-08-07T09:48:59;95403.22;;;14.26;73.88
72409;BME280;60402;48.082;11.628;2023-08-07T09:51:46;95400.06;;;14.43;73.31
72409;BME280;60402;48.082;11.628;2023-08-07T09:54:33;95410.22;;;14.71;71.89
72409;BME280;60402;48.082;11.628;2023-08-07T09:57:19;95402.97;;;14.70;72.72
72409;BME280;60402;48.082;11.628;2023-08-07T10:00:08;95398.69;;;14.84;72.53
72409;BME280;60402;48.082;11.628;2023-08-07T10:02:57;95398.34;;;15.00;72.52
72409;BME280;60402;48.082;11.628;2023-08-07T10:05:43;95398.06;;;14.89;70.57
72409;BME280;60402;48.082;11.628;2023-08-07T10:08:29;95396.78;;;14.81;71.53
72409;BME280;60402;48.082;11.628;2023-08-07T10:11:15;95389.53;;;14.98;71.78
72409;BME280;60402;48.082;11.628;2023-08-07T10:14:01;95388.19;;;15.36;70.85
72409;BME280;60402;48.082;11.628;2023-08-07T10:16:48;95403.59;;;15.81;69.02
72409;BME280;60402;48.082;11.628;2023-08-07T10:19:34;95396.84;;;16.26;67.29
72409;BME280;60402;48.082;11.628;2023-08-07T10:22:20;95392.00;;;16.42;66.19
72409;BME280;60402;48.082;11.628;2023-08-07T10:25:09;95385.16;;;16.48;64.65
72409;BME280;60402;48.082;11.628;2023-08-07T10:27:56;95389.00;;;16.60;65.33
72409;BME280;60402;48.082;11.628;2023-08-07T10:30:42;95373.78;;;17.02;64.73
72409;BME280;60402;48.082;11.628;2023-08-07T10:33:28;95383.88;;;17.27;64.12
72409;BME280;60402;48.082;11.628;2023-08-07T10:36:16;95359.84;;;17.33;61.25
72409;BME280;60402;48.082;11.628;2023-08-07T10:39:12;95377.38;;;17.71;62.96
72409;BME280;60402;48.082;11.628;2023-08-07T10:41:58;95371.47;;;17.74;61.11
72409;BME280;60402;48.082;11.628;2023-08-07T10:44:48;95381.13;;;17.62;63.10
72409;BME280;60402;48.082;11.628;2023-08-07T10:47:35;95386.06;;;17.47;63.16
72409;BME280;60402;48.082;11.628;2023-08-07T10:50:27;95368.16;;;16.93;62.44
72409;BME280;60402;48.082;11.628;2023-08-07T10:53:37;95378.72;;;16.63;64.57
72409;BME280;60402;48.082;11.628;2023-08-07T10:56:33;95373.25;;;16.50;65.81
72409;BME280;60402;48.082;11.628;2023-08-07T10:59:19;95377.91;;;16.62;65.56
72409;BME280;60402;48.082;11.628;2023-08-07T11:02:07;95374.94;;;16.80;65.15
72409;BME280;60402;48.082;11.628;2023-08-07T11:04:56;95369.56;;;16.97;64.75
72409;BME280;60402;48.082;11.628;2023-08-07T11:07:42;95371.66;;;17.11;64.22
72409;BME280;60402;48.082;11.628;2023-08-07T11:10:30;95373.44;;;17.09;64.66
72409;BME280;60402;48.082;11.628;2023-08-07T11:13:15;95377.13;;;16.85;64.65
72409;BME280;60402;48.082;11.628;2023-08-07T11:16:02;95366.78;;;16.88;65.64
72409;BME280;60402;48.082;11.628;2023-08-07T11:18:51;95374.41;;;17.06;65.67
72409;BME280;60402;48.082;11.628;2023-08-07T11:21:37;95361.03;;;17.27;63.96
72409;BME280;60402;48.082;11.628;2023-08-07T11:24:22;95374.13;;;17.48;62.26
72409;BME280;60402;48.082;11.628;2023-08-07T11:27:08;95376.88;;;17.57;61.31
72409;BME280;60402;48.082;11.628;2023-08-07T11:29:54;95369.78;;;17.23;61.02
72409;BME280;60402;48.082;11.628;2023-08-07T11:32:39;95372.06;;;17.19;62.48
72409;BME280;60402;48.082;11.628;2023-08-07T11:35:25;95365.72;;;16.85;64.07
72409;BME280;60402;48.082;11.628;2023-08-07T11:38:11;95360.56;;;16.75;64.95
72409;BME280;60402;48.082;11.628;2023-08-07T11:40:58;95370.72;;;16.76;64.51
72409;BME280;60402;48.082;11.628;2023-08-07T11:43:45;95378.00;;;16.77;65.19
72409;BME280;60402;48.082;11.628;2023-08-07T11:46:31;95383.94;;;17.03;62.72
72409;BME280;60402;48.082;11.628;2023-08-07T11:49:17;95373.44;;;17.09;62.50
72409;BME280;60402;48.082;11.628;2023-08-07T11:52:03;95371.00;;;17.31;62.71
72409;BME280;60402;48.082;11.628;2023-08-07T11:54:49;95368.78;;;17.26;58.99
72409;BME280;60402;48.082;11.628;2023-08-07T11:57:38;95371.03;;;17.07;59.40
72409;BME280;60402;48.082;11.628;2023-08-07T12:00:25;95375.31;;;17.27;60.29
72409;BME280;60402;48.082;11.628;2023-08-07T12:03:29;95377.16;;;17.15;60.85
72409;BME280;60402;48.082;11.628;2023-08-07T12:06:15;95380.38;;;16.93;60.81
72409;BME280;60402;48.082;11.628;2023-08-07T12:09:02;95382.44;;;16.69;61.19
72409;BME280;60402;48.082;11.628;2023-08-07T12:11:48;95392.19;;;16.38;62.42
72409;BME280;60402;48.082;11.628;2023-08-07T12:14:35;95396.06;;;15.93;68.10
72409;BME280;60402;48.082;11.628;2023-08-07T12:17:21;95403.22;;;15.88;69.00
72409;BME280;60402;48.082;11.628;2023-08-07T12:20:07;95407.59;;;15.65;68.59
72409;BME280;60402;48.082;11.628;2023-08-07T12:22:55;95391.75;;;15.64;68.08
72409;BME280;60402;48.082;11.628;2023-08-07T12:25:41;95398.00;;;15.87;67.77
72409;BME280;60402;48.082;11.628;2023-08-07T12:28:27;95403.00;;;16.01;68.31
72409;BME280;60402;48.082;11.628;2023-08-07T12:31:13;95414.84;;;16.08;67.18
72409;BME280;60402;48.082;11.628;2023-08-07T12:33:58;95410.53;;;16.13;66.17
72409;BME280;60402;48.082;11.628;2023-08-07T12:36:44;95408.88;;;16.30;65.47
72409;BME280;60402;48.082;11.628;2023-08-07T12:39:30;95419.13;;;16.61;64.47
72409;BME280;60402;48.082;11.628;2023-08-07T12:42:15;95402.53;;;16.98;64.19
72409;BME280;60402;48.082;11.628;2023-08-07T12:45:01;95408.47;;;17.09;59.97
72409;BME280;60402;48.082;11.628;2023-08-07T12:47:46;95404.50;;;17.07;58.57
72409;BME280;60402;48.082;11.628;2023-08-07T12:50:32;95405.72;;;17.15;58.40
72409;BME280;60402;48.082;11.628;2023-08-07T12:53:18;95413.63;;;17.50;57.85
72409;BME280;60402;48.082;11.628;2023-08-07T12:56:03;95408.91;;;17.47;58.77
72409;BME280;60402;48.082;11.628;2023-08-07T12:58:50;95413.44;;;17.53;57.19
72409;BME280;60402;48.082;11.628;2023-08-07T13:01:36;95421.63;;;17.46;57.81
72409;BME280;60402;48.082;11.628;2023-08-07T13:04:22;95423.19;;;17.61;58.14
72409;BME280;60402;48.082;11.628;2023-08-07T13:07:08;95420.44;;;17.52;57.30
72409;BME280;60402;48.082;11.628;2023-08-07T13:09:53;95416.78;;;17.37;56.16
72409;BME280;60402;48.082;11.628;2023-08-07T13:12:43;95422.75;;;17.24;57.17
72409;BME280;60402;48.082;11.628;2023-08-07T13:15:29;95426.31;;;17.19;56.69
72409;BME280;60402;48.082;11.628;2023-08-07T13:18:15;95424.66;;;17.42;55.32
72409;BME280;60402;48.082;11.628;2023-08-07T13:21:02;95431.06;;;17.67;57.21
72409;BME280;60402;48.082;11.628;2023-08-07T13:23:47;95440.53;;;17.87;56.18
72409;BME280;60402;48.082;11.628;2023-08-07T13:26:34;95435.91;;;18.05;53.24
72409;BME280;60402;48.082;11.628;2023-08-07T13:29:20;95426.72;;;18.01;52.88
72409;BME280;60402;48.082;11.628;2023-08-07T13:32:06;95426.53;;;18.39;53.79
72409;BME280;60402;48.082;11.628;2023-08-07T13:34:55;95440.50;;;18.52;53.47
72409;BME280;60402;48.082;11.628;2023-08-07T13:37:40;95433.09;;;18.25;53.75
72409;BME280;60402;48.082;11.628;2023-08-07T13:40:26;95441.97;;;18.27;54.00
72409;BME280;60402;48.082;11.628;2023-08-07T13:43:11;95437.22;;;17.89;53.14
72409;BME280;60402;48.082;11.628;2023-08-07T13:45:57;95440.03;;;17.59;52.14
72409;BME280;60402;48.082;11.628;2023-08-07T13:48:43;95455.91;;;17.46;53.09
72409;BME280;60402;48.082;11.628;2023-08-07T13:51:29;95457.19;;;17.06;55.43
72409;BME280;60402;48.082;11.628;2023-08-07T13:54:14;95462.03;;;16.76;56.02
72409;BME280;60402;48.082;11.628;2023-08-07T13:57:00;95464.31;;;16.86;55.66
72409;BME280;60402;48.082;11.628;2023-08-07T13:59:46;95464.88;;;16.76;56.12
72409;BME280;60402;48.082;11.628;2023-08-07T14:02:31;95467.06;;;16.81;56.08
72409;BME280;60402;48.082;11.628;2023-08-07T14:05:20;95461.50;;;17.01;55.27
72409;BME280;60402;48.082;11.628;2023-08-07T14:08:05;95465.31;;;16.98;54.71
72409;BME280;60402;48.082;11.628;2023-08-07T14:10:51;95476.59;;;17.17;51.97
72409;BME280;60402;48.082;11.628;2023-08-07T14:13:37;95483.53;;;17.25;53.74
72409;BME280;60402;48.082;11.628;2023-08-07T14:16:23;95481.44;;;17.25;60.80
72409;BME280;60402;48.082;11.628;2023-08-07T14:19:09;95489.41;;;17.21;66.04
72409;BME280;60402;48.082;11.628;2023-08-07T14:21:54;95505.28;;;16.98;68.80
72409;BME280;60402;48.082;11.628;2023-08-07T14:24:40;95505.66;;;16.91;70.29
72409;BME280;60402;48.082;11.628;2023-08-07T14:27:25;95504.63;;;16.79;70.75
72409;BME280;60402;48.082;11.628;2023-08-07T14:30:11;95507.28;;;17.07;70.88